createdAt,value
2019-03-26T00:01:56.949Z,19.23
2019-03-26T00:07:01.773Z,20.03
2019-03-26T00:12:06.510Z,17.87
2019-03-26T00:17:11.458Z,17.77
2019-03-26T00:22:16.226Z,18.47
2019-03-26T00:27:21.273Z,18.80
2019-03-26T00:32:26.018Z,18.17
2019-03-26T00:37:30.760Z,18.63
2019-03-26T00:42:35.499Z,14.77
2019-03-26T00:47:40.556Z,16.63
2019-03-26T00:52:45.292Z,14.60
2019-03-26T00:57:50.343Z,14.97
2019-03-26T01:02:55.367Z,14.57
2019-03-26T01:08:00.439Z,15.67
2019-03-26T01:13:06.289Z,14.97
2019-03-26T01:18:11.126Z,14.93
2019-03-26T01:23:15.892Z,12.93
2019-03-26T01:28:20.638Z,12.77
2019-03-26T01:33:25.308Z,12.60
2019-03-26T01:38:29.999Z,14.10
2019-03-26T01:43:34.863Z,13.77
2019-03-26T01:48:39.606Z,13.83
2019-03-26T01:53:44.348Z,14.63
2019-03-26T01:58:49.378Z,14.40
2019-03-26T02:03:54.140Z,14.90
2019-03-26T02:08:58.854Z,15.57
2019-03-26T02:14:03.628Z,16.83
2019-03-26T02:19:08.671Z,34.00
2019-03-26T02:24:13.721Z,22.93
2019-03-26T02:29:18.462Z,25.40
2019-03-26T02:34:23.206Z,30.73
2019-03-26T02:39:28.254Z,24.17
2019-03-26T02:44:33.305Z,19.27
2019-03-26T02:49:38.046Z,15.90
2019-03-26T02:54:42.788Z,14.37
2019-03-26T02:59:47.529Z,13.67
2019-03-26T03:04:52.279Z,14.63
2019-03-26T03:09:57.018Z,19.20
2019-03-26T03:15:02.063Z,16.40
2019-03-26T03:20:07.418Z,13.90
2019-03-26T03:25:12.478Z,14.50
2019-03-26T03:30:18.170Z,14.17
2019-03-26T03:35:23.054Z,13.17
2019-03-26T03:40:27.813Z,13.83
2019-03-26T03:45:32.977Z,14.37
2019-03-26T03:50:39.559Z,12.83
2019-03-26T03:55:45.836Z,14.43
2019-03-26T04:00:50.604Z,13.57
2019-03-26T04:06:08.187Z,13.17
2019-03-26T04:11:01.674Z,15.90
2019-03-26T04:16:06.656Z,15.93
2019-03-26T04:21:11.389Z,20.97
2019-03-26T04:26:16.132Z,26.87
2019-03-26T04:31:20.860Z,27.87
2019-03-26T04:36:26.667Z,21.20
2019-03-26T04:41:31.586Z,20.73
2019-03-26T04:46:38.171Z,25.80
2019-03-26T04:51:42.990Z,16.33
2019-03-26T04:56:47.962Z,18.03
2019-03-26T05:01:52.705Z,18.00
2019-03-26T05:06:57.754Z,19.70
2019-03-26T05:12:02.803Z,18.33
2019-03-26T05:17:07.853Z,21.27
2019-03-26T05:22:23.539Z,23.10
2019-03-26T05:27:19.154Z,20.93
2019-03-26T05:32:23.957Z,27.37
2019-03-26T05:37:28.970Z,21.90
2019-03-26T05:42:33.798Z,22.47
2019-03-26T05:47:39.050Z,22.80
2019-03-26T05:52:43.812Z,23.57
2019-03-26T05:57:48.864Z,18.17
2019-03-26T06:02:53.602Z,18.70
2019-03-26T06:07:58.344Z,18.53
2019-03-26T06:13:03.088Z,19.83
2019-03-26T06:18:08.137Z,18.00
2019-03-26T06:23:12.846Z,17.53
2019-03-26T06:28:17.620Z,19.23
2019-03-26T06:33:22.378Z,18.87
2019-03-26T06:38:27.410Z,16.57
2019-03-26T06:43:32.152Z,17.83
2019-03-26T06:48:36.870Z,15.13
2019-03-26T06:53:41.637Z,15.80
2019-03-26T06:58:46.707Z,15.87
2019-03-26T07:03:51.427Z,14.77
2019-03-26T07:08:56.477Z,16.43
2019-03-26T07:14:01.222Z,17.63
2019-03-26T07:19:06.270Z,15.80
2019-03-26T07:24:11.940Z,15.47
2019-03-26T07:29:17.903Z,15.73
2019-03-26T07:34:22.722Z,14.50
2019-03-26T07:39:27.697Z,16.03
2019-03-26T07:44:32.436Z,16.37
2019-03-26T07:49:37.155Z,14.67
2019-03-26T07:54:42.227Z,15.93
2019-03-26T07:59:47.280Z,15.75
2019-03-26T08:04:52.027Z,16.23
2019-03-26T08:09:57.067Z,15.40
2019-03-26T08:15:02.122Z,17.50
2019-03-26T08:20:08.773Z,29.20
2019-03-26T08:25:13.930Z,17.70
2019-03-26T08:30:18.782Z,16.73
2019-03-26T08:35:23.851Z,16.10
2019-03-26T08:40:28.909Z,15.58
2019-03-26T08:45:34.564Z,17.12
2019-03-26T08:50:39.614Z,16.50
2019-03-26T08:55:44.666Z,17.70
2019-03-26T09:00:49.710Z,15.15
2019-03-26T09:05:54.760Z,14.28
2019-03-26T09:10:59.483Z,12.85
2019-03-26T09:16:04.554Z,14.28
2019-03-26T09:21:09.297Z,15.00
2019-03-26T09:26:14.341Z,11.53
2019-03-26T09:31:19.391Z,9.30
2019-03-26T09:36:24.133Z,8.33
2019-03-26T09:41:29.182Z,7.80
2019-03-26T09:46:34.262Z,6.55
2019-03-26T09:51:39.976Z,7.90
2019-03-26T09:56:44.928Z,6.83
2019-03-26T10:01:49.689Z,7.12
2019-03-26T10:06:54.737Z,6.25
2019-03-26T10:11:59.786Z,6.00
2019-03-26T10:17:04.839Z,8.58
2019-03-26T10:22:09.654Z,6.95
2019-03-26T10:27:14.642Z,7.03
2019-03-26T10:32:19.343Z,6.15
2019-03-26T10:37:24.418Z,9.33
2019-03-26T10:42:29.468Z,6.85
2019-03-26T10:47:36.056Z,4.58
2019-03-26T10:52:41.102Z,6.42
2019-03-26T10:57:46.047Z,5.15
2019-03-26T11:02:53.919Z,4.15
2019-03-26T11:07:57.147Z,5.65
2019-03-26T11:13:02.117Z,4.70
2019-03-26T11:18:07.170Z,4.17
2019-03-26T11:23:12.216Z,3.55
2019-03-26T11:28:17.265Z,5.45
2019-03-26T11:33:22.006Z,2.92
2019-03-26T11:38:26.750Z,2.77
2019-03-26T11:43:31.491Z,3.27
2019-03-26T11:48:37.847Z,3.77
2019-03-26T11:53:43.964Z,2.80
2019-03-26T11:58:48.869Z,3.92
2019-03-26T12:03:53.838Z,6.25
2019-03-26T12:08:58.554Z,2.60
2019-03-26T12:14:03.629Z,6.03
2019-03-26T12:19:08.686Z,2.85
2019-03-26T12:24:13.421Z,2.98
2019-03-26T12:29:18.165Z,3.70
2019-03-26T12:34:23.216Z,2.90
2019-03-26T12:39:27.904Z,2.22
2019-03-26T12:44:32.696Z,1.47
2019-03-26T12:49:37.514Z,2.70
2019-03-26T12:54:42.491Z,1.55
2019-03-26T12:59:47.314Z,1.80
2019-03-26T13:04:52.285Z,2.52
2019-03-26T13:09:57.021Z,2.67
2019-03-26T13:15:01.762Z,3.10
2019-03-26T13:20:07.375Z,2.92
2019-03-26T13:25:12.476Z,3.37
2019-03-26T13:30:18.424Z,3.70
2019-03-26T13:35:23.502Z,3.75
2019-03-26T13:40:28.241Z,3.25
2019-03-26T13:45:33.102Z,3.15
2019-03-26T13:50:38.033Z,3.12
2019-03-26T13:55:43.058Z,2.77
2019-03-26T14:00:48.128Z,3.22
2019-03-26T14:05:52.971Z,3.25
2019-03-26T14:10:57.697Z,2.20
2019-03-26T14:16:02.644Z,2.85
2019-03-26T14:21:07.479Z,2.15
2019-03-26T14:26:12.222Z,1.62
2019-03-26T14:31:17.072Z,6.80
2019-03-26T14:36:21.815Z,7.40
2019-03-26T14:41:26.677Z,2.37
2019-03-26T14:46:31.644Z,1.62
2019-03-26T14:51:36.473Z,2.30
2019-03-26T14:56:41.519Z,2.95
2019-03-26T15:01:46.571Z,2.60
2019-03-26T15:06:51.603Z,1.42
2019-03-26T15:11:56.361Z,1.70
2019-03-26T15:17:01.414Z,1.50
2019-03-26T15:22:07.380Z,1.10
2019-03-26T15:27:12.227Z,1.65
2019-03-26T15:32:17.173Z,1.80
2019-03-26T15:37:21.921Z,36.53
2019-03-26T15:42:26.656Z,7.37
2019-03-26T15:47:31.710Z,5.60
2019-03-26T15:52:36.756Z,2.95
2019-03-26T15:57:41.496Z,1.98
2019-03-26T16:02:46.546Z,1.75
2019-03-26T16:07:51.595Z,1.35
2019-03-26T16:12:56.643Z,1.85
2019-03-26T16:18:01.694Z,3.47
2019-03-26T16:23:06.623Z,4.03
2019-03-26T16:28:11.485Z,2.30
2019-03-26T16:33:16.187Z,2.70
2019-03-26T16:38:20.973Z,2.65
2019-03-26T16:43:25.639Z,2.58
2019-03-26T16:48:30.453Z,2.35
2019-03-26T16:53:35.198Z,1.80
2019-03-26T16:58:39.936Z,3.00
2019-03-26T17:03:44.987Z,1.93
2019-03-26T17:08:50.036Z,2.53
2019-03-26T17:13:54.871Z,2.63
2019-03-26T17:18:59.827Z,2.70
2019-03-26T17:24:04.776Z,3.07
2019-03-26T17:29:09.924Z,2.83
2019-03-26T17:34:14.976Z,3.27
2019-03-26T17:39:19.715Z,3.50
2019-03-26T17:44:25.078Z,5.23
2019-03-26T17:49:30.138Z,14.70
2019-03-26T17:54:34.951Z,4.80
2019-03-26T17:59:40.204Z,4.93
2019-03-26T18:04:44.965Z,5.50
2019-03-26T18:09:49.918Z,5.97
2019-03-26T18:14:54.754Z,4.67
2019-03-26T18:19:59.803Z,4.30
2019-03-26T18:25:06.079Z,4.33
2019-03-26T18:30:12.362Z,5.67
2019-03-26T18:35:17.382Z,4.10
2019-03-26T18:40:22.453Z,5.47
2019-03-26T18:45:27.195Z,4.40
2019-03-26T18:50:32.246Z,3.50
2019-03-26T18:55:37.298Z,3.60
2019-03-26T19:00:42.036Z,3.60
2019-03-26T19:05:47.068Z,3.37
2019-03-26T19:10:52.134Z,4.40
2019-03-26T19:15:57.190Z,4.97
2019-03-26T19:21:02.868Z,5.53
2019-03-26T19:26:07.897Z,5.27
2019-03-26T19:31:12.945Z,5.30
2019-03-26T19:36:17.995Z,5.00
2019-03-26T19:41:23.029Z,4.60
2019-03-26T19:46:27.869Z,4.23
2019-03-26T19:51:32.837Z,5.30
2019-03-26T19:56:37.513Z,5.13
2019-03-26T20:01:42.321Z,6.43
2019-03-26T20:06:47.065Z,6.80
2019-03-26T20:11:52.136Z,6.50
2019-03-26T20:16:57.142Z,6.13
2019-03-26T20:22:01.902Z,7.27
2019-03-26T20:27:06.722Z,7.97
2019-03-26T20:32:11.795Z,5.90
2019-03-26T20:37:16.742Z,6.10
2019-03-26T20:42:22.099Z,6.53
2019-03-26T20:47:27.148Z,6.07
2019-03-26T20:52:33.362Z,5.87
2019-03-26T20:57:41.240Z,6.43
2019-03-26T21:02:47.517Z,3.90
2019-03-26T21:07:52.566Z,6.13
2019-03-26T21:12:57.530Z,4.70
2019-03-26T21:18:02.664Z,4.63
2019-03-26T21:23:08.021Z,5.17
2019-03-26T21:28:12.839Z,6.40
2019-03-26T21:33:17.583Z,7.33
2019-03-26T21:38:22.425Z,6.50
2019-03-26T21:43:27.297Z,6.30
2019-03-26T21:48:32.038Z,6.77
2019-03-26T21:53:36.779Z,5.83
2019-03-26T21:58:41.829Z,6.40
2019-03-26T22:03:46.548Z,7.60
2019-03-26T22:08:51.627Z,12.67
2019-03-26T22:13:56.443Z,11.80
2019-03-26T22:19:01.392Z,9.27
2019-03-26T22:24:06.463Z,8.90
2019-03-26T22:29:11.283Z,10.60
2019-03-26T22:34:16.252Z,10.33
2019-03-26T22:39:20.994Z,9.30
2019-03-26T22:44:31.205Z,8.87
2019-03-26T22:49:32.321Z,9.20
2019-03-26T22:54:37.063Z,10.07
2019-03-26T22:59:41.806Z,10.83
2019-03-26T23:04:46.855Z,13.63
2019-03-26T23:09:51.908Z,13.53
2019-03-26T23:14:56.954Z,12.47
2019-03-26T23:20:01.781Z,13.37
2019-03-26T23:25:07.258Z,14.93
2019-03-26T23:30:13.938Z,21.87
2019-03-26T23:35:19.174Z,21.87
2019-03-26T23:40:24.326Z,18.57
2019-03-26T23:45:30.193Z,12.63
2019-03-26T23:50:35.070Z,16.87
2019-03-26T23:55:39.910Z,17.13
